sensor_id;sensor_type;location;lat;lon;timestamp;temperature;humidity
12384;DHT22;6256;63.808;20.336;2023-05-14T00:01:25;8.30;99.90
12384;DHT22;6256;63.808;20.336;2023-05-14T00:03:51;8.30;99.90
12384;DHT22;6256;63.808;20.336;2023-05-14T00:06:16;8.30;99.90
12384;DHT22;6256;63.808;20.336;2023-05-14T00:08:42;8.30;99.90
12384;DHT22;6256;63.808;20.336;2023-05-14T00:11:07;8.20;99.90
12384;DHT22;6256;63.808;20.336;2023-05-14T00:13:34;8.20;99.90
12384;DHT22;6256;63.808;20.336;2023-05-14T00:16:00;8.20;99.90
12384;DHT22;6256;63.808;20.336;2023-05-14T00:18:26;8.10;99.90
12384;DHT22;6256;63.808;20.336;2023-05-14T00:20:55;8.10;99.90
12384;DHT22;6256;63.808;20.336;2023-05-14T00:23:21;8.00;99.90
12384;DHT22;6256;63.808;20.336;2023-05-14T00:25:47;8.00;99.90
12384;DHT22;6256;63.808;20.336;2023-05-14T00:28:13;8.00;99.90
12384;DHT22;6256;63.808;20.336;2023-05-14T00:30:39;7.90;99.90
12384;DHT22;6256;63.808;20.336;2023-05-14T00:33:05;7.90;99.90
12384;DHT22;6256;63.808;20.336;2023-05-14T00:35:31;7.80;99.90
12384;DHT22;6256;63.808;20.336;2023-05-14T00:37:59;7.80;99.90
12384;DHT22;6256;63.808;20.336;2023-05-14T00:40:26;7.80;99.90
12384;DHT22;6256;63.808;20.336;2023-05-14T00:42:53;7.80;99.90
12384;DHT22;6256;63.808;20.336;2023-05-14T00:45:19;7.70;99.90
12384;DHT22;6256;63.808;20.336;2023-05-14T00:47:46;7.70;99.90
12384;DHT22;6256;63.808;20.336;2023-05-14T00:50:13;7.70;99.90
12384;DHT22;6256;63.808;20.336;2023-05-14T00:52:39;7.70;99.90
12384;DHT22;6256;63.808;20.336;2023-05-14T00:55:06;7.60;99.90
12384;DHT22;6256;63.808;20.336;2023-05-14T00:57:33;7.60;99.90
12384;DHT22;6256;63.808;20.336;2023-05-14T01:00:01;7.60;99.90
12384;DHT22;6256;63.808;20.336;2023-05-14T01:02:27;7.60;99.90
12384;DHT22;6256;63.808;20.336;2023-05-14T01:04:53;7.60;99.90
12384;DHT22;6256;63.808;20.336;2023-05-14T01:10:24;7.50;99.90
12384;DHT22;6256;63.808;20.336;2023-05-14T01:15:38;7.50;99.90
12384;DHT22;6256;63.808;20.336;2023-05-14T01:18:10;7.50;99.90
12384;DHT22;6256;63.808;20.336;2023-05-14T01:20:37;7.50;99.90
12384;DHT22;6256;63.808;20.336;2023-05-14T01:23:03;7.50;99.90
12384;DHT22;6256;63.808;20.336;2023-05-14T01:25:30;7.40;99.90
12384;DHT22;6256;63.808;20.336;2023-05-14T01:28:19;7.40;99.90
12384;DHT22;6256;63.808;20.336;2023-05-14T01:31:07;7.40;99.90
12384;DHT22;6256;63.808;20.336;2023-05-14T01:33:34;7.40;99.90
12384;DHT22;6256;63.808;20.336;2023-05-14T01:36:03;7.30;99.90
12384;DHT22;6256;63.808;20.336;2023-05-14T01:38:29;7.30;99.90
12384;DHT22;6256;63.808;20.336;2023-05-14T01:40:59;7.30;99.90
12384;DHT22;6256;63.808;20.336;2023-05-14T01:43:25;7.30;99.90
12384;DHT22;6256;63.808;20.336;2023-05-14T01:45:51;7.30;99.90
12384;DHT22;6256;63.808;20.336;2023-05-14T01:48:17;7.30;99.90
12384;DHT22;6256;63.808;20.336;2023-05-14T01:50:42;7.30;99.90
12384;DHT22;6256;63.808;20.336;2023-05-14T01:53:08;7.30;99.90
12384;DHT22;6256;63.808;20.336;2023-05-14T01:55:34;7.20;99.90
12384;DHT22;6256;63.808;20.336;2023-05-14T01:58:00;7.20;99.90
12384;DHT22;6256;63.808;20.336;2023-05-14T02:00:28;7.20;99.90
12384;DHT22;6256;63.808;20.336;2023-05-14T02:02:53;7.10;99.90
12384;DHT22;6256;63.808;20.336;2023-05-14T02:05:19;7.10;99.90
12384;DHT22;6256;63.808;20.336;2023-05-14T02:07:45;7.10;99.90
12384;DHT22;6256;63.808;20.336;2023-05-14T02:10:11;7.10;99.90
12384;DHT22;6256;63.808;20.336;2023-05-14T02:12:36;7.00;99.90
12384;DHT22;6256;63.808;20.336;2023-05-14T02:15:03;7.00;99.90
12384;DHT22;6256;63.808;20.336;2023-05-14T02:17:29;7.00;99.90
12384;DHT22;6256;63.808;20.336;2023-05-14T02:19:54;7.00;99.90
12384;DHT22;6256;63.808;20.336;2023-05-14T02:22:20;7.00;99.90
12384;DHT22;6256;63.808;20.336;2023-05-14T02:24:45;7.00;99.90
12384;DHT22;6256;63.808;20.336;2023-05-14T02:27:11;7.00;99.90
12384;DHT22;6256;63.808;20.336;2023-05-14T02:29:39;6.90;99.90
12384;DHT22;6256;63.808;20.336;2023-05-14T02:32:04;7.00;99.90
12384;DHT22;6256;63.808;20.336;2023-05-14T02:34:30;6.90;99.90
12384;DHT22;6256;63.808;20.336;2023-05-14T02:36:58;6.90;99.90
12384;DHT22;6256;63.808;20.336;2023-05-14T02:39:24;6.90;99.90
12384;DHT22;6256;63.808;20.336;2023-05-14T02:41:50;6.90;99.90
12384;DHT22;6256;63.808;20.336;2023-05-14T02:44:16;6.90;99.90
12384;DHT22;6256;63.808;20.336;2023-05-14T02:46:42;6.90;99.90
12384;DHT22;6256;63.808;20.336;2023-05-14T02:49:08;6.90;99.90
12384;DHT22;6256;63.808;20.336;2023-05-14T02:51:33;6.90;99.90
12384;DHT22;6256;63.808;20.336;2023-05-14T02:53:59;7.00;99.90
12384;DHT22;6256;63.808;20.336;2023-05-14T02:56:25;7.00;99.90
12384;DHT22;6256;63.808;20.336;2023-05-14T02:58:51;7.10;99.90
12384;DHT22;6256;63.808;20.336;2023-05-14T03:01:16;7.10;99.90
12384;DHT22;6256;63.808;20.336;2023-05-14T03:03:43;7.20;99.90
12384;DHT22;6256;63.808;20.336;2023-05-14T03:06:09;7.20;99.90
12384;DHT22;6256;63.808;20.336;2023-05-14T03:08:35;7.20;99.90
12384;DHT22;6256;63.808;20.336;2023-05-14T03:11:01;7.30;99.90
12384;DHT22;6256;63.808;20.336;2023-05-14T03:13:26;7.30;99.90
12384;DHT22;6256;63.808;20.336;2023-05-14T03:15:52;7.40;99.90
12384;DHT22;6256;63.808;20.336;2023-05-14T03:18:19;7.40;99.90
12384;DHT22;6256;63.808;20.336;2023-05-14T03:20:45;7.50;99.90
12384;DHT22;6256;63.808;20.336;2023-05-14T03:23:11;7.50;99.90
12384;DHT22;6256;63.808;20.336;2023-05-14T03:25:36;7.60;99.90
12384;DHT22;6256;63.808;20.336;2023-05-14T03:28:02;7.60;99.90
12384;DHT22;6256;63.808;20.336;2023-05-14T03:30:28;7.70;99.90
12384;DHT22;6256;63.808;20.336;2023-05-14T03:32:54;7.70;99.90
12384;DHT22;6256;63.808;20.336;2023-05-14T03:35:20;7.80;99.90
12384;DHT22;6256;63.808;20.336;2023-05-14T03:37:46;7.80;99.90
12384;DHT22;6256;63.808;20.336;2023-05-14T03:40:11;7.90;99.90
12384;DHT22;6256;63.808;20.336;2023-05-14T03:42:37;8.00;99.90
12384;DHT22;6256;63.808;20.336;2023-05-14T03:45:03;8.00;99.90
12384;DHT22;6256;63.808;20.336;2023-05-14T03:47:29;8.10;99.90
12384;DHT22;6256;63.808;20.336;2023-05-14T03:49:56;8.10;99.90
12384;DHT22;6256;63.808;20.336;2023-05-14T03:52:22;8.10;99.90
12384;DHT22;6256;63.808;20.336;2023-05-14T03:54:48;8.20;99.90
12384;DHT22;6256;63.808;20.336;2023-05-14T03:57:14;8.30;99.90
12384;DHT22;6256;63.808;20.336;2023-05-14T03:59:39;8.40;99.90
12384;DHT22;6256;63.808;20.336;2023-05-14T04:02:05;8.40;99.90
12384;DHT22;6256;63.808;20.336;2023-05-14T04:04:31;8.40;99.90
12384;DHT22;6256;63.808;20.336;2023-05-14T04:06:57;8.50;99.90
12384;DHT22;6256;63.808;20.336;2023-05-14T04:09:22;8.50;99.90
12384;DHT22;6256;63.808;20.336;2023-05-14T04:11:48;8.60;99.90
12384;DHT22;6256;63.808;20.336;2023-05-14T04:14:14;8.60;99.90
12384;DHT22;6256;63.808;20.336;2023-05-14T04:16:39;8.60;99.90
12384;DHT22;6256;63.808;20.336;2023-05-14T04:19:05;8.70;99.90
12384;DHT22;6256;63.808;20.336;2023-05-14T04:21:31;8.80;99.90
12384;DHT22;6256;63.808;20.336;2023-05-14T04:23:57;8.80;99.90
12384;DHT22;6256;63.808;20.336;2023-05-14T04:26:23;8.90;99.90
12384;DHT22;6256;63.808;20.336;2023-05-14T04:28:48;9.00;99.90
12384;DHT22;6256;63.808;20.336;2023-05-14T04:31:14;9.10;99.90
12384;DHT22;6256;63.808;20.336;2023-05-14T04:33:40;9.10;99.90
12384;DHT22;6256;63.808;20.336;2023-05-14T04:36:06;9.10;99.90
12384;DHT22;6256;63.808;20.336;2023-05-14T04:38:32;9.20;99.90
12384;DHT22;6256;63.808;20.336;2023-05-14T04:40:58;9.20;99.90
12384;DHT22;6256;63.808;20.336;2023-05-14T04:43:24;9.20;99.90
12384;DHT22;6256;63.808;20.336;2023-05-14T04:45:50;9.20;99.90
12384;DHT22;6256;63.808;20.336;2023-05-14T04:48:17;9.30;99.90
12384;DHT22;6256;63.808;20.336;2023-05-14T04:50:43;9.40;99.90
12384;DHT22;6256;63.808;20.336;2023-05-14T04:53:09;9.50;99.90
12384;DHT22;6256;63.808;20.336;2023-05-14T04:55:35;9.60;99.90
12384;DHT22;6256;63.808;20.336;2023-05-14T04:58:03;9.70;99.90
12384;DHT22;6256;63.808;20.336;2023-05-14T05:00:29;9.80;99.90
12384;DHT22;6256;63.808;20.336;2023-05-14T05:02:55;9.90;99.90
12384;DHT22;6256;63.808;20.336;2023-05-14T05:05:21;10.00;99.90
12384;DHT22;6256;63.808;20.336;2023-05-14T05:07:47;10.10;99.90
12384;DHT22;6256;63.808;20.336;2023-05-14T05:10:13;10.20;99.90
12384;DHT22;6256;63.808;20.336;2023-05-14T05:12:38;10.30;99.90
12384;DHT22;6256;63.808;20.336;2023-05-14T05:15:04;10.40;99.90
12384;DHT22;6256;63.808;20.336;2023-05-14T05:17:30;10.50;99.90
12384;DHT22;6256;63.808;20.336;2023-05-14T05:19:56;10.60;99.90
12384;DHT22;6256;63.808;20.336;2023-05-14T05:22:22;10.70;99.90
12384;DHT22;6256;63.808;20.336;2023-05-14T05:24:48;10.80;99.90
12384;DHT22;6256;63.808;20.336;2023-05-14T05:27:14;10.80;99.90
12384;DHT22;6256;63.808;20.336;2023-05-14T05:29:39;11.00;99.90
12384;DHT22;6256;63.808;20.336;2023-05-14T05:32:06;11.10;99.90
12384;DHT22;6256;63.808;20.336;2023-05-14T05:34:32;11.10;99.90
12384;DHT22;6256;63.808;20.336;2023-05-14T05:36:58;11.30;99.90
12384;DHT22;6256;63.808;20.336;2023-05-14T05:39:24;11.40;99.90
12384;DHT22;6256;63.808;20.336;2023-05-14T05:41:49;11.50;99.90
12384;DHT22;6256;63.808;20.336;2023-05-14T05:44:15;11.60;99.90
12384;DHT22;6256;63.808;20.336;2023-05-14T05:46:41;11.60;99.90
12384;DHT22;6256;63.808;20.336;2023-05-14T05:49:06;11.80;99.90
12384;DHT22;6256;63.808;20.336;2023-05-14T05:51:32;11.80;99.90
12384;DHT22;6256;63.808;20.336;2023-05-14T05:53:57;11.90;99.90
12384;DHT22;6256;63.808;20.336;2023-05-14T05:56:23;12.00;99.90
12384;DHT22;6256;63.808;20.336;2023-05-14T05:58:49;12.00;99.90
12384;DHT22;6256;63.808;20.336;2023-05-14T06:01:14;12.10;99.90
12384;DHT22;6256;63.808;20.336;2023-05-14T06:03:40;12.30;99.90
12384;DHT22;6256;63.808;20.336;2023-05-14T06:06:06;12.40;99.90
12384;DHT22;6256;63.808;20.336;2023-05-14T06:08:32;12.50;99.90
12384;DHT22;6256;63.808;20.336;2023-05-14T06:10:58;12.60;99.90
12384;DHT22;6256;63.808;20.336;2023-05-14T06:13:24;12.70;99.90
12384;DHT22;6256;63.808;20.336;2023-05-14T06:15:50;12.80;99.90
12384;DHT22;6256;63.808;20.336;2023-05-14T06:18:15;12.90;99.90
12384;DHT22;6256;63.808;20.336;2023-05-14T06:20:41;13.10;99.90
12384;DHT22;6256;63.808;20.336;2023-05-14T06:23:07;13.20;99.90
12384;DHT22;6256;63.808;20.336;2023-05-14T06:25:33;13.30;99.90
12384;DHT22;6256;63.808;20.336;2023-05-14T06:27:58;13.30;99.90
12384;DHT22;6256;63.808;20.336;2023-05-14T06:30:24;13.40;99.90
12384;DHT22;6256;63.808;20.336;2023-05-14T06:32:50;13.60;99.90
12384;DHT22;6256;63.808;20.336;2023-05-14T06:35:17;13.80;99.90
12384;DHT22;6256;63.808;20.336;2023-05-14T06:37:43;13.80;99.90
12384;DHT22;6256;63.808;20.336;2023-05-14T06:40:09;14.00;99.90
12384;DHT22;6256;63.808;20.336;2023-05-14T06:42:35;14.10;99.90
12384;DHT22;6256;63.808;20.336;2023-05-14T06:45:01;14.30;99.90
12384;DHT22;6256;63.808;20.336;2023-05-14T06:47:26;14.30;99.90
12384;DHT22;6256;63.808;20.336;2023-05-14T06:49:52;14.40;99.90
12384;DHT22;6256;63.808;20.336;2023-05-14T06:52:18;14.50;99.90
12384;DHT22;6256;63.808;20.336;2023-05-14T06:54:44;14.60;99.90
12384;DHT22;6256;63.808;20.336;2023-05-14T06:57:09;14.70;99.90
12384;DHT22;6256;63.808;20.336;2023-05-14T06:59:35;14.80;99.90
12384;DHT22;6256;63.808;20.336;2023-05-14T07:02:01;15.00;99.90
12384;DHT22;6256;63.808;20.336;2023-05-14T07:04:27;15.10;99.90
12384;DHT22;6256;63.808;20.336;2023-05-14T07:06:53;15.20;99.90
12384;DHT22;6256;63.808;20.336;2023-05-14T07:09:18;15.20;99.90
12384;DHT22;6256;63.808;20.336;2023-05-14T07:11:44;15.30;99.90
12384;DHT22;6256;63.808;20.336;2023-05-14T07:14:10;15.40;99.90
12384;DHT22;6256;63.808;20.336;2023-05-14T07:16:36;15.50;99.90
12384;DHT22;6256;63.808;20.336;2023-05-14T07:19:01;15.50;99.90
12384;DHT22;6256;63.808;20.336;2023-05-14T07:21:27;15.60;99.90
12384;DHT22;6256;63.808;20.336;2023-05-14T07:23:53;15.70;99.90
12384;DHT22;6256;63.808;20.336;2023-05-14T07:26:19;15.80;99.90
12384;DHT22;6256;63.808;20.336;2023-05-14T07:28:45;16.00;99.90
12384;DHT22;6256;63.808;20.336;2023-05-14T07:31:11;16.10;99.90
12384;DHT22;6256;63.808;20.336;2023-05-14T07:33:37;16.10;99.90
12384;DHT22;6256;63.808;20.336;2023-05-14T07:36:03;16.30;99.90
12384;DHT22;6256;63.808;20.336;2023-05-14T07:38:30;16.40;99.90
12384;DHT22;6256;63.808;20.336;2023-05-14T07:40:56;16.50;99.90
12384;DHT22;6256;63.808;20.336;2023-05-14T07:43:22;16.60;99.90
12384;DHT22;6256;63.808;20.336;2023-05-14T07:45:48;16.60;99.90
12384;DHT22;6256;63.808;20.336;2023-05-14T07:48:13;16.70;99.90
12384;DHT22;6256;63.808;20.336;2023-05-14T07:50:39;16.70;99.90
12384;DHT22;6256;63.808;20.336;2023-05-14T07:53:05;16.70;99.90
12384;DHT22;6256;63.808;20.336;2023-05-14T07:55:30;16.80;99.90
12384;DHT22;6256;63.808;20.336;2023-05-14T07:57:56;16.90;99.90
12384;DHT22;6256;63.808;20.336;2023-05-14T08:00:22;16.90;99.90
12384;DHT22;6256;63.808;20.336;2023-05-14T08:02:48;16.90;99.90
12384;DHT22;6256;63.808;20.336;2023-05-14T08:05:14;16.90;99.90
12384;DHT22;6256;63.808;20.336;2023-05-14T08:07:40;16.90;99.90
12384;DHT22;6256;63.808;20.336;2023-05-14T08:10:06;16.80;99.90
12384;DHT22;6256;63.808;20.336;2023-05-14T08:12:32;16.80;99.90
12384;DHT22;6256;63.808;20.336;2023-05-14T08:14:58;16.90;99.90
12384;DHT22;6256;63.808;20.336;2023-05-14T08:17:23;16.90;99.90
12384;DHT22;6256;63.808;20.336;2023-05-14T08:19:49;16.90;99.90
12384;DHT22;6256;63.808;20.336;2023-05-14T08:22:15;16.90;99.90
12384;DHT22;6256;63.808;20.336;2023-05-14T08:24:41;16.90;99.90
12384;DHT22;6256;63.808;20.336;2023-05-14T08:27:08;16.90;99.90
12384;DHT22;6256;63.808;20.336;2023-05-14T08:29:33;17.00;99.90
12384;DHT22;6256;63.808;20.336;2023-05-14T08:31:59;16.90;99.90
12384;DHT22;6256;63.808;20.336;2023-05-14T08:34:25;17.00;99.90
12384;DHT22;6256;63.808;20.336;2023-05-14T08:36:52;17.10;99.90
12384;DHT22;6256;63.808;20.336;2023-05-14T08:39:18;17.30;99.90
12384;DHT22;6256;63.808;20.336;2023-05-14T08:41:44;17.50;99.90
12384;DHT22;6256;63.808;20.336;2023-05-14T08:44:14;17.60;99.10
12384;DHT22;6256;63.808;20.336;2023-05-14T08:46:40;17.70;97.80
12384;DHT22;6256;63.808;20.336;2023-05-14T08:49:14;17.90;98.00
12384;DHT22;6256;63.808;20.336;2023-05-14T08:51:45;18.00;96.30
12384;DHT22;6256;63.808;20.336;2023-05-14T08:54:15;18.20;95.90
12384;DHT22;6256;63.808;20.336;2023-05-14T08:56:43;18.30;94.40
12384;DHT22;6256;63.808;20.336;2023-05-14T08:59:13;18.50;93.70
12384;DHT22;6256;63.808;20.336;2023-05-14T09:01:45;18.60;92.80
12384;DHT22;6256;63.808;20.336;2023-05-14T09:04:13;18.70;90.70
12384;DHT22;6256;63.808;20.336;2023-05-14T09:06:41;18.90;91.70
12384;DHT22;6256;63.808;20.336;2023-05-14T09:09:08;19.10;91.00
12384;DHT22;6256;63.808;20.336;2023-05-14T09:11:40;19.20;90.60
12384;DHT22;6256;63.808;20.336;2023-05-14T09:14:06;19.40;90.00
12384;DHT22;6256;63.808;20.336;2023-05-14T09:16:32;19.50;90.30
12384;DHT22;6256;63.808;20.336;2023-05-14T09:19:02;19.60;88.70
12384;DHT22;6256;63.808;20.336;2023-05-14T09:21:27;19.60;87.60
12384;DHT22;6256;63.808;20.336;2023-05-14T09:23:53;19.60;87.60
12384;DHT22;6256;63.808;20.336;2023-05-14T09:26:24;19.60;87.50
12384;DHT22;6256;63.808;20.336;2023-05-14T09:28:57;19.60;86.60
12384;DHT22;6256;63.808;20.336;2023-05-14T09:31:28;19.60;85.10
12384;DHT22;6256;63.808;20.336;2023-05-14T09:33:55;19.60;85.20
12384;DHT22;6256;63.808;20.336;2023-05-14T09:36:20;19.40;84.30
12384;DHT22;6256;63.808;20.336;2023-05-14T09:38:46;19.60;85.70
12384;DHT22;6256;63.808;20.336;2023-05-14T09:41:12;19.60;83.90
12384;DHT22;6256;63.808;20.336;2023-05-14T09:43:38;19.80;83.90
12384;DHT22;6256;63.808;20.336;2023-05-14T09:46:04;20.10;82.90
12384;DHT22;6256;63.808;20.336;2023-05-14T09:48:29;20.20;82.50
12384;DHT22;6256;63.808;20.336;2023-05-14T09:50:55;19.90;78.80
12384;DHT22;6256;63.808;20.336;2023-05-14T09:53:21;19.90;77.70
12384;DHT22;6256;63.808;20.336;2023-05-14T09:55:46;19.80;77.00
12384;DHT22;6256;63.808;20.336;2023-05-14T09:58:13;20.10;78.50
12384;DHT22;6256;63.808;20.336;2023-05-14T10:00:43;20.30;75.20
12384;DHT22;6256;63.808;20.336;2023-05-14T10:03:12;20.40;73.60
12384;DHT22;6256;63.808;20.336;2023-05-14T10:05:40;20.40;71.00
12384;DHT22;6256;63.808;20.336;2023-05-14T10:08:32;20.40;72.80
12384;DHT22;6256;63.808;20.336;2023-05-14T10:10:58;20.60;70.50
12384;DHT22;6256;63.808;20.336;2023-05-14T10:13:29;20.60;69.50
12384;DHT22;6256;63.808;20.336;2023-05-14T10:15:56;20.70;70.70
12384;DHT22;6256;63.808;20.336;2023-05-14T10:18:29;20.80;68.60
12384;DHT22;6256;63.808;20.336;2023-05-14T10:21:06;20.70;67.80
12384;DHT22;6256;63.808;20.336;2023-05-14T10:23:32;21.00;68.10
12384;DHT22;6256;63.808;20.336;2023-05-14T10:25:59;21.30;72.30
12384;DHT22;6256;63.808;20.336;2023-05-14T10:28:26;21.40;64.50
12384;DHT22;6256;63.808;20.336;2023-05-14T10:30:53;21.30;66.50
12384;DHT22;6256;63.808;20.336;2023-05-14T10:33:18;21.30;66.20
12384;DHT22;6256;63.808;20.336;2023-05-14T10:36:02;21.70;66.60
12384;DHT22;6256;63.808;20.336;2023-05-14T10:41:00;21.50;64.40
12384;DHT22;6256;63.808;20.336;2023-05-14T10:43:26;21.70;64.60
12384;DHT22;6256;63.808;20.336;2023-05-14T10:45:54;21.60;66.80
12384;DHT22;6256;63.808;20.336;2023-05-14T10:48:19;21.70;65.00
12384;DHT22;6256;63.808;20.336;2023-05-14T10:50:47;21.90;64.80
12384;DHT22;6256;63.808;20.336;2023-05-14T10:53:14;22.20;65.40
12384;DHT22;6256;63.808;20.336;2023-05-14T10:55:41;22.70;63.50
12384;DHT22;6256;63.808;20.336;2023-05-14T10:58:11;22.80;62.00
12384;DHT22;6256;63.808;20.336;2023-05-14T11:00:37;23.00;63.60
12384;DHT22;6256;63.808;20.336;2023-05-14T11:03:04;23.30;62.10
12384;DHT22;6256;63.808;20.336;2023-05-14T11:05:31;23.60;62.30
12384;DHT22;6256;63.808;20.336;2023-05-14T11:07:58;23.90;62.40
12384;DHT22;6256;63.808;20.336;2023-05-14T11:10:24;24.00;60.50
12384;DHT22;6256;63.808;20.336;2023-05-14T11:12:51;24.10;61.20
12384;DHT22;6256;63.808;20.336;2023-05-14T11:15:20;24.30;60.90
12384;DHT22;6256;63.808;20.336;2023-05-14T11:17:46;24.20;61.10
12384;DHT22;6256;63.808;20.336;2023-05-14T11:20:13;24.80;59.60
12384;DHT22;6256;63.808;20.336;2023-05-14T11:22:40;24.50;58.50
12384;DHT22;6256;63.808;20.336;2023-05-14T11:25:07;24.70;59.80
12384;DHT22;6256;63.808;20.336;2023-05-14T11:27:35;24.60;58.60
12384;DHT22;6256;63.808;20.336;2023-05-14T11:30:01;24.90;57.90
12384;DHT22;6256;63.808;20.336;2023-05-14T11:32:28;24.80;57.30
12384;DHT22;6256;63.808;20.336;2023-05-14T11:34:55;25.00;57.80
12384;DHT22;6256;63.808;20.336;2023-05-14T11:37:21;25.20;55.50
12384;DHT22;6256;63.808;20.336;2023-05-14T11:39:49;25.20;57.00
12384;DHT22;6256;63.808;20.336;2023-05-14T11:42:15;25.20;57.10
12384;DHT22;6256;63.808;20.336;2023-05-14T11:44:44;25.40;55.10
12384;DHT22;6256;63.808;20.336;2023-05-14T11:47:10;25.80;55.20
12384;DHT22;6256;63.808;20.336;2023-05-14T11:49:36;26.00;54.20
12384;DHT22;6256;63.808;20.336;2023-05-14T11:52:05;25.70;53.50
12384;DHT22;6256;63.808;20.336;2023-05-14T11:54:32;25.90;53.60
12384;DHT22;6256;63.808;20.336;2023-05-14T11:57:01;26.00;54.30
12384;DHT22;6256;63.808;20.336;2023-05-14T11:59:27;26.60;53.90
12384;DHT22;6256;63.808;20.336;2023-05-14T12:01:54;26.20;52.80
12384;DHT22;6256;63.808;20.336;2023-05-14T12:04:20;26.50;52.90
12384;DHT22;6256;63.808;20.336;2023-05-14T12:06:50;26.40;52.60
12384;DHT22;6256;63.808;20.336;2023-05-14T12:09:18;26.70;52.30
12384;DHT22;6256;63.808;20.336;2023-05-14T12:11:47;26.90;51.50
12384;DHT22;6256;63.808;20.336;2023-05-14T12:14:18;26.90;51.50
12384;DHT22;6256;63.808;20.336;2023-05-14T12:16:45;27.40;51.70
12384;DHT22;6256;63.808;20.336;2023-05-14T12:19:14;27.00;49.40
12384;DHT22;6256;63.808;20.336;2023-05-14T12:21:42;27.20;50.60
12384;DHT22;6256;63.808;20.336;2023-05-14T12:24:12;25.80;50.50
12384;DHT22;6256;63.808;20.336;2023-05-14T12:26:39;26.20;51.30
12384;DHT22;6256;63.808;20.336;2023-05-14T12:29:11;26.50;50.40
12384;DHT22;6256;63.808;20.336;2023-05-14T12:31:37;27.20;50.20
12384;DHT22;6256;63.808;20.336;2023-05-14T12:34:09;27.30;48.70
12384;DHT22;6256;63.808;20.336;2023-05-14T12:36:35;27.30;50.20
12384;DHT22;6256;63.808;20.336;2023-05-14T12:39:01;27.10;48.60
12384;DHT22;6256;63.808;20.336;2023-05-14T12:41:29;27.20;49.10
12384;DHT22;6256;63.808;20.336;2023-05-14T12:43:55;27.90;50.00
12384;DHT22;6256;63.808;20.336;2023-05-14T12:46:21;28.30;48.00
12384;DHT22;6256;63.808;20.336;2023-05-14T12:48:46;28.50;47.90
12384;DHT22;6256;63.808;20.336;2023-05-14T12:51:12;28.60;47.60
12384;DHT22;6256;63.808;20.336;2023-05-14T12:53:38;28.70;46.80
12384;DHT22;6256;63.808;20.336;2023-05-14T12:56:04;29.00;47.60
12384;DHT22;6256;63.808;20.336;2023-05-14T12:58:30;28.90;47.10
12384;DHT22;6256;63.808;20.336;2023-05-14T13:00:56;29.30;48.30
12384;DHT22;6256;63.808;20.336;2023-05-14T13:03:22;29.00;45.50
12384;DHT22;6256;63.808;20.336;2023-05-14T13:05:48;28.70;46.80
12384;DHT22;6256;63.808;20.336;2023-05-14T13:08:13;29.00;46.10
12384;DHT22;6256;63.808;20.336;2023-05-14T13:10:42;28.70;46.00
12384;DHT22;6256;63.808;20.336;2023-05-14T13:13:09;28.60;47.60
12384;DHT22;6256;63.808;20.336;2023-05-14T13:15:36;28.90;46.90
12384;DHT22;6256;63.808;20.336;2023-05-14T13:18:02;28.30;46.50
12384;DHT22;6256;63.808;20.336;2023-05-14T13:20:28;28.10;47.30
12384;DHT22;6256;63.808;20.336;2023-05-14T13:22:56;28.10;46.60
12384;DHT22;6256;63.808;20.336;2023-05-14T13:25:21;28.60;47.60
12384;DHT22;6256;63.808;20.336;2023-05-14T13:27:50;28.60;45.80
12384;DHT22;6256;63.808;20.336;2023-05-14T13:30:19;29.10;46.70
12384;DHT22;6256;63.808;20.336;2023-05-14T13:32:45;29.00;46.00
12384;DHT22;6256;63.808;20.336;2023-05-14T13:35:11;28.50;46.00
12384;DHT22;6256;63.808;20.336;2023-05-14T13:37:37;28.50;45.70
12384;DHT22;6256;63.808;20.336;2023-05-14T13:40:03;28.80;46.30
12384;DHT22;6256;63.808;20.336;2023-05-14T13:42:31;29.00;45.00
12384;DHT22;6256;63.808;20.336;2023-05-14T13:44:58;29.10;45.30
12384;DHT22;6256;63.808;20.336;2023-05-14T13:47:25;29.30;46.60
12384;DHT22;6256;63.808;20.336;2023-05-14T13:49:54;29.20;45.00
12384;DHT22;6256;63.808;20.336;2023-05-14T13:52:20;29.90;45.80
12384;DHT22;6256;63.808;20.336;2023-05-14T13:54:46;29.50;43.80
12384;DHT22;6256;63.808;20.336;2023-05-14T13:57:12;29.60;44.30
12384;DHT22;6256;63.808;20.336;2023-05-14T13:59:37;29.00;43.70
12384;DHT22;6256;63.808;20.336;2023-05-14T14:02:04;28.70;44.00
12384;DHT22;6256;63.808;20.336;2023-05-14T14:04:29;29.00;44.60
12384;DHT22;6256;63.808;20.336;2023-05-14T14:06:55;28.90;45.60
12384;DHT22;6256;63.808;20.336;2023-05-14T14:09:21;29.00;44.70
12384;DHT22;6256;63.808;20.336;2023-05-14T14:11:47;29.20;44.80
12384;DHT22;6256;63.808;20.336;2023-05-14T14:14:13;29.30;44.30
12384;DHT22;6256;63.808;20.336;2023-05-14T14:16:39;29.40;44.20
12384;DHT22;6256;63.808;20.336;2023-05-14T14:19:05;28.90;43.70
12384;DHT22;6256;63.808;20.336;2023-05-14T14:21:31;27.90;43.20
12384;DHT22;6256;63.808;20.336;2023-05-14T14:23:57;28.30;45.20
12384;DHT22;6256;63.808;20.336;2023-05-14T14:26:23;28.90;45.70
12384;DHT22;6256;63.808;20.336;2023-05-14T14:28:48;29.00;44.40
12384;DHT22;6256;63.808;20.336;2023-05-14T14:31:15;28.70;44.00
12384;DHT22;6256;63.808;20.336;2023-05-14T14:33:41;28.20;43.50
12384;DHT22;6256;63.808;20.336;2023-05-14T14:36:07;27.90;44.40
12384;DHT22;6256;63.808;20.336;2023-05-14T14:38:33;27.30;44.50
12384;DHT22;6256;63.808;20.336;2023-05-14T14:40:59;27.30;44.00
12384;DHT22;6256;63.808;20.336;2023-05-14T14:43:27;27.10;44.50
12384;DHT22;6256;63.808;20.336;2023-05-14T14:45:53;27.20;44.20
12384;DHT22;6256;63.808;20.336;2023-05-14T14:48:32;27.40;43.60
12384;DHT22;6256;63.808;20.336;2023-05-14T14:51:02;27.50;44.10
12384;DHT22;6256;63.808;20.336;2023-05-14T14:53:28;27.90;43.10
12384;DHT22;6256;63.808;20.336;2023-05-14T14:55:54;28.10;42.70
12384;DHT22;6256;63.808;20.336;2023-05-14T14:58:21;28.10;42.60
12384;DHT22;6256;63.808;20.336;2023-05-14T15:00:50;28.20;43.30
12384;DHT22;6256;63.808;20.336;2023-05-14T15:03:16;28.30;42.40
12384;DHT22;6256;63.808;20.336;2023-05-14T15:05:42;28.90;42.30
12384;DHT22;6256;63.808;20.336;2023-05-14T15:08:08;29.10;42.50
12384;DHT22;6256;63.808;20.336;2023-05-14T15:10:34;28.70;41.30
12384;DHT22;6256;63.808;20.336;2023-05-14T15:13:03;28.80;43.10
12384;DHT22;6256;63.808;20.336;2023-05-14T15:15:29;29.30;41.80
12384;DHT22;6256;63.808;20.336;2023-05-14T15:17:56;28.20;41.60
12384;DHT22;6256;63.808;20.336;2023-05-14T15:20:22;28.80;42.80
12384;DHT22;6256;63.808;20.336;2023-05-14T15:22:50;28.80;42.20
12384;DHT22;6256;63.808;20.336;2023-05-14T15:25:18;29.20;41.60
12384;DHT22;6256;63.808;20.336;2023-05-14T15:27:44;29.40;40.90
12384;DHT22;6256;63.808;20.336;2023-05-14T15:30:10;29.40;40.90
12384;DHT22;6256;63.808;20.336;2023-05-14T15:32:36;29.80;41.40
12384;DHT22;6256;63.808;20.336;2023-05-14T15:35:02;29.30;42.00
12384;DHT22;6256;63.808;20.336;2023-05-14T15:37:38;29.20;42.30
12384;DHT22;6256;63.808;20.336;2023-05-14T15:40:04;29.60;41.60